Delta Virtual Airport Information Service

Noumea La Tontouta International Airport

ICAO: NWWW Country: New Caledonia
Latitude: -22.0163 Longitude: 166.216
Latest Arrival : DAC1985 (VQPR-NWWW) Latest Departure : DAC1985 (NWWW-VABB)


WX CaptureLIVE
Data provided by noaa.gov | Fetched at 01:48:05

METAR : NWWW 300630Z AUTO VRB03KT 9999 OVC044/// ///CB 28/22 Q1007 TEMPO 4000 SHRA BKN014 SCT018CB

TAF : NWWW 300630Z AUTO VRB03KT 9999 OVC044/// ///CB 28/22 Q1007 TEMPO 4000 SHRA BKN014 SCT018CB


Runway Data for NWWW
Data provided by openaviationdata.com

Runway ID Mag Var Hdg Length Elevation Surface ILS Freq ILS Id ILS Slope
11 13 108° 10672 ft 52 ft Asphalt 109.9 LT 3
29 13 288° 10672 ft 52 ft Asphalt -- -- --

Noumea La Tontouta International Airport, New Caledonia
Use only for reference purposes



Not for navigational purposes.